createdAt,value
2023-01-23T00:00:13.380Z,7.40
2023-01-23T00:02:44.755Z,4.80
2023-01-23T00:05:16.075Z,3.97
2023-01-23T00:07:47.557Z,8.20
2023-01-23T00:10:19.179Z,4.60
2023-01-23T00:12:50.599Z,3.63
2023-01-23T00:15:21.885Z,4.07
2023-01-23T00:17:53.363Z,4.33
2023-01-23T00:20:24.758Z,5.13
2023-01-23T00:22:56.079Z,5.77
2023-01-23T00:25:27.371Z,4.97
2023-01-23T00:27:58.651Z,5.20
2023-01-23T00:30:30.019Z,6.20
2023-01-23T00:33:01.372Z,4.97
2023-01-23T00:35:35.124Z,5.07
2023-01-23T00:38:06.443Z,4.03
2023-01-23T00:40:37.753Z,3.57
2023-01-23T00:43:09.028Z,6.10
2023-01-23T00:45:40.296Z,5.03
2023-01-23T00:48:11.578Z,3.77
2023-01-23T00:50:42.957Z,5.77
2023-01-23T00:53:14.535Z,7.33
2023-01-23T00:55:45.937Z,6.57
2023-01-23T00:58:18.499Z,3.73
2023-01-23T01:00:49.840Z,3.53
2023-01-23T01:03:21.192Z,4.13
2023-01-23T01:05:52.825Z,6.03
2023-01-23T01:08:24.111Z,5.03
2023-01-23T01:10:55.398Z,3.17
2023-01-23T01:13:27.568Z,5.17
2023-01-23T01:16:01.827Z,4.37
2023-01-23T01:18:33.421Z,3.83
2023-01-23T01:21:10.011Z,4.87
2023-01-23T01:23:41.643Z,5.00
2023-01-23T01:26:13.006Z,4.33
2023-01-23T01:28:44.340Z,6.77
2023-01-23T01:31:16.727Z,4.63
2023-01-23T01:33:49.080Z,4.63
2023-01-23T01:36:22.700Z,5.90
2023-01-23T01:38:54.035Z,6.77
2023-01-23T01:41:25.464Z,3.57
2023-01-23T01:43:57.381Z,5.67
2023-01-23T01:46:30.677Z,4.70
2023-01-23T01:49:10.921Z,3.67
2023-01-23T01:51:47.328Z,3.43
2023-01-23T01:54:25.253Z,5.47
2023-01-23T01:57:11.714Z,4.60
2023-01-23T01:59:48.150Z,3.53
2023-01-23T02:02:26.196Z,5.17
2023-01-23T02:05:02.806Z,4.40
2023-01-23T02:07:40.875Z,4.97
2023-01-23T02:10:14.176Z,5.13
2023-01-23T02:12:47.554Z,3.40
2023-01-23T02:15:21.421Z,4.60
2023-01-23T02:17:54.772Z,4.40
2023-01-23T02:20:28.626Z,4.03
2023-01-23T02:23:12.140Z,3.47
2023-01-23T02:25:43.495Z,4.23
2023-01-23T02:28:16.297Z,3.37
2023-01-23T02:30:47.673Z,3.70
2023-01-23T02:33:18.924Z,6.20
2023-01-23T02:35:50.725Z,3.90
2023-01-23T02:38:26.278Z,5.00
2023-01-23T02:41:01.353Z,5.18
2023-01-23T02:43:38.351Z,3.77
2023-01-23T02:46:11.730Z,4.10
2023-01-23T02:48:44.274Z,4.93
2023-01-23T02:51:17.106Z,4.57
2023-01-23T02:53:48.915Z,5.87
2023-01-23T02:56:20.232Z,4.37
2023-01-23T02:59:10.658Z,8.10
2023-01-23T03:01:41.906Z,3.70
2023-01-23T03:04:13.315Z,3.60
2023-01-23T03:06:44.653Z,5.77
2023-01-23T03:09:17.411Z,5.73
2023-01-23T03:11:48.764Z,8.23
2023-01-23T03:14:22.372Z,8.20
2023-01-23T03:16:55.075Z,7.57
2023-01-23T03:19:27.015Z,6.43
2023-01-23T03:21:58.767Z,4.67
2023-01-23T03:24:30.251Z,4.47
2023-01-23T03:27:01.723Z,3.70
2023-01-23T03:29:51.538Z,4.60
2023-01-23T03:32:22.792Z,5.90
2023-01-23T03:34:54.145Z,2.70
2023-01-23T03:37:25.679Z,3.93
2023-01-23T03:40:15.835Z,4.90
2023-01-23T03:42:47.174Z,3.60
2023-01-23T03:45:18.429Z,5.17
2023-01-23T03:47:49.687Z,4.50
2023-01-23T03:50:21.221Z,3.57
2023-01-23T03:52:52.652Z,6.50
2023-01-23T03:55:23.944Z,5.00
2023-01-23T03:57:55.221Z,5.40
2023-01-23T04:00:26.483Z,3.23
2023-01-23T04:02:57.854Z,5.97
2023-01-23T04:05:29.306Z,4.23
2023-01-23T04:08:01.183Z,4.90
2023-01-23T04:10:32.558Z,3.53
2023-01-23T04:13:04.221Z,3.57
2023-01-23T04:15:35.542Z,5.33
2023-01-23T04:18:06.900Z,5.63
2023-01-23T04:20:38.184Z,5.00
2023-01-23T04:23:09.551Z,5.57
2023-01-23T04:25:40.884Z,7.43
2023-01-23T04:28:13.168Z,4.27
2023-01-23T04:30:44.989Z,5.73
2023-01-23T04:33:17.118Z,3.80
2023-01-23T04:35:54.953Z,3.63
2023-01-23T04:38:28.281Z,4.13
2023-01-23T04:41:00.230Z,5.40
2023-01-23T04:43:31.588Z,4.00
2023-01-23T04:46:02.948Z,7.00
2023-01-23T04:48:34.265Z,3.83
2023-01-23T04:51:06.214Z,4.00
2023-01-23T04:53:38.154Z,3.77
2023-01-23T04:56:09.426Z,4.63
2023-01-23T04:58:40.680Z,4.03
2023-01-23T05:01:12.094Z,4.90
2023-01-23T05:03:43.360Z,7.00
2023-01-23T05:06:14.677Z,4.73
2023-01-23T05:08:46.213Z,5.73
2023-01-23T05:11:17.630Z,7.40
2023-01-23T05:13:48.946Z,6.67
2023-01-23T05:16:20.265Z,3.93
2023-01-23T05:18:51.606Z,3.57
2023-01-23T05:21:22.918Z,3.67
2023-01-23T05:23:54.201Z,3.73
2023-01-23T05:26:25.489Z,3.57
2023-01-23T05:28:56.820Z,7.50
2023-01-23T05:31:28.238Z,3.77
2023-01-23T05:33:59.754Z,5.90
2023-01-23T05:36:31.072Z,6.13
2023-01-23T05:39:02.431Z,5.73
2023-01-23T05:41:33.730Z,6.33
2023-01-23T05:44:05.156Z,4.47
2023-01-23T05:46:36.495Z,5.03
2023-01-23T05:49:07.835Z,8.37
2023-01-23T05:51:39.132Z,5.60
2023-01-23T05:54:10.594Z,5.80
2023-01-23T05:56:42.135Z,6.77
2023-01-23T05:59:13.420Z,7.30
2023-01-23T06:01:45.010Z,5.53
2023-01-23T06:04:16.368Z,6.23
2023-01-23T06:06:47.670Z,6.17
2023-01-23T06:09:19.117Z,5.47
2023-01-23T06:11:50.407Z,5.80
2023-01-23T06:14:21.858Z,9.10
2023-01-23T06:16:53.141Z,6.87
2023-01-23T06:19:24.495Z,5.63
2023-01-23T06:21:55.882Z,8.33
2023-01-23T06:24:27.222Z,9.30
2023-01-23T06:26:58.603Z,7.87
2023-01-23T06:29:29.984Z,6.37
2023-01-23T06:32:01.371Z,7.67
2023-01-23T06:34:32.772Z,7.73
2023-01-23T06:37:04.291Z,6.30
2023-01-23T06:39:35.639Z,7.83
2023-01-23T06:42:10.056Z,9.27
2023-01-23T06:44:43.193Z,9.83
2023-01-23T06:47:15.646Z,7.97
2023-01-23T06:49:46.958Z,8.37
2023-01-23T06:52:18.328Z,7.87
2023-01-23T06:54:49.631Z,8.40
2023-01-23T06:57:21.281Z,8.97
2023-01-23T06:59:52.559Z,7.47
2023-01-23T07:02:24.335Z,6.97
2023-01-23T07:04:57.766Z,6.53
2023-01-23T07:07:29.123Z,7.77
2023-01-23T07:10:00.481Z,8.23
2023-01-23T07:12:31.868Z,8.47
2023-01-23T07:15:04.511Z,8.63
2023-01-23T07:17:35.888Z,8.20
2023-01-23T07:20:07.994Z,9.23
2023-01-23T07:22:39.819Z,8.40
2023-01-23T07:25:11.125Z,9.30
2023-01-23T07:27:42.475Z,8.13
2023-01-23T07:30:14.367Z,12.03
2023-01-23T07:32:45.693Z,10.37
2023-01-23T07:35:17.018Z,12.17
2023-01-23T07:37:48.286Z,9.67
2023-01-23T07:40:19.748Z,7.80
2023-01-23T07:42:51.317Z,8.60
2023-01-23T07:45:22.610Z,9.67
2023-01-23T07:47:53.905Z,8.87
2023-01-23T07:50:25.300Z,8.60
2023-01-23T07:52:57.048Z,10.20
2023-01-23T07:55:29.494Z,10.17
2023-01-23T07:58:00.970Z,10.03
2023-01-23T08:00:32.549Z,10.90
2023-01-23T08:03:03.930Z,11.43
2023-01-23T08:05:35.293Z,10.27
2023-01-23T08:08:13.427Z,9.40
2023-01-23T08:10:45.201Z,8.80
2023-01-23T08:13:16.635Z,8.97
2023-01-23T08:15:47.984Z,9.83
2023-01-23T08:18:19.281Z,9.63
2023-01-23T08:20:58.146Z,7.33
2023-01-23T08:23:32.683Z,8.60
2023-01-23T08:26:06.678Z,11.33
2023-01-23T08:28:38.020Z,9.60
2023-01-23T08:31:10.749Z,7.07
2023-01-23T08:33:42.183Z,11.20
2023-01-23T08:36:13.961Z,9.37
2023-01-23T08:38:45.515Z,8.93
2023-01-23T08:41:18.083Z,11.63
2023-01-23T08:43:50.549Z,11.73
2023-01-23T08:46:22.846Z,9.50
2023-01-23T08:48:54.255Z,12.83
2023-01-23T08:51:27.094Z,14.60
2023-01-23T08:53:59.472Z,8.37
2023-01-23T08:56:30.779Z,9.50
2023-01-23T08:59:05.135Z,10.70
2023-01-23T09:01:36.478Z,8.67
2023-01-23T09:04:07.971Z,10.40
2023-01-23T09:06:39.625Z,11.27
2023-01-23T09:09:10.962Z,11.23
2023-01-23T09:11:42.450Z,13.53
2023-01-23T09:14:13.891Z,11.83
2023-01-23T09:16:45.224Z,7.47
2023-01-23T09:19:16.676Z,10.57
2023-01-23T09:21:47.972Z,9.03
2023-01-23T09:24:19.340Z,8.43
2023-01-23T09:26:50.713Z,11.87
2023-01-23T09:29:21.983Z,9.87
2023-01-23T09:31:53.331Z,11.53
2023-01-23T09:34:24.843Z,9.43
2023-01-23T09:36:57.223Z,10.27
2023-01-23T09:39:28.481Z,9.23
2023-01-23T09:42:08.498Z,11.27
2023-01-23T09:44:48.262Z,11.53
2023-01-23T09:47:46.714Z,9.83
2023-01-23T09:50:25.229Z,10.43
2023-01-23T09:53:06.270Z,9.83
2023-01-23T09:55:48.940Z,8.77
2023-01-23T09:58:42.997Z,13.67
2023-01-23T10:01:14.493Z,10.50
2023-01-23T10:03:45.935Z,9.40
2023-01-23T10:06:20.688Z,12.00
2023-01-23T10:09:34.535Z,14.23
2023-01-23T10:12:54.760Z,12.57
2023-01-23T10:15:47.187Z,11.03
2023-01-23T10:18:26.300Z,13.87
2023-01-23T10:21:16.938Z,13.03
2023-01-23T10:24:00.966Z,13.53
2023-01-23T10:26:43.400Z,11.97
2023-01-23T10:29:29.641Z,12.93
2023-01-23T10:32:03.744Z,13.95
2023-01-23T10:34:47.352Z,11.30
2023-01-23T10:37:25.399Z,12.43
2023-01-23T10:40:13.106Z,12.13
2023-01-23T10:42:44.442Z,12.57
2023-01-23T10:45:21.260Z,14.40
2023-01-23T10:47:55.367Z,11.50
2023-01-23T10:50:39.599Z,14.87
2023-01-23T10:53:19.803Z,14.07
2023-01-23T10:55:55.542Z,14.50
2023-01-23T10:58:37.038Z,16.90
2023-01-23T11:01:25.979Z,17.57
2023-01-23T11:03:57.767Z,17.47
2023-01-23T11:06:29.052Z,15.33
2023-01-23T11:09:01.975Z,14.37
2023-01-23T11:11:33.546Z,14.30
2023-01-23T11:14:09.738Z,16.80
2023-01-23T11:16:41.303Z,13.05
2023-01-23T11:19:20.634Z,14.17
2023-01-23T11:22:00.891Z,12.07
2023-01-23T11:24:41.266Z,18.20
2023-01-23T11:27:26.407Z,14.73
2023-01-23T11:30:23.898Z,12.87
2023-01-23T11:33:04.148Z,20.03
2023-01-23T11:36:00.273Z,17.27
2023-01-23T11:38:44.842Z,15.40
2023-01-23T11:41:28.706Z,15.10
2023-01-23T11:44:08.028Z,16.73
2023-01-23T11:47:01.762Z,16.77
2023-01-23T11:50:02.556Z,17.20
2023-01-23T11:52:33.797Z,12.70
2023-01-23T11:55:38.554Z,12.93
2023-01-23T11:58:24.899Z,13.40
2023-01-23T12:01:18.268Z,13.10
2023-01-23T12:04:14.399Z,14.57
2023-01-23T12:06:54.792Z,12.33
2023-01-23T12:09:39.000Z,14.00
2023-01-23T12:12:38.598Z,12.87
2023-01-23T12:15:41.645Z,17.83
2023-01-23T12:18:49.396Z,14.53
2023-01-23T12:24:32.243Z,16.57
2023-01-23T12:27:20.604Z,14.97
2023-01-23T12:30:07.247Z,15.43
2023-01-23T12:32:45.233Z,13.73
2023-01-23T12:35:42.735Z,14.80
2023-01-23T12:38:23.121Z,15.50
2023-01-23T12:41:24.903Z,14.13
2023-01-23T12:44:18.189Z,12.83
2023-01-23T12:47:01.632Z,13.07
2023-01-23T12:49:44.496Z,16.97
2023-01-23T12:52:23.640Z,16.77
2023-01-23T12:55:06.049Z,14.10
2023-01-23T12:58:00.171Z,11.60
2023-01-23T13:00:41.773Z,14.90
2023-01-23T13:03:45.986Z,13.03
2023-01-23T13:06:36.800Z,15.23
2023-01-23T13:09:26.166Z,16.23
2023-01-23T13:12:23.026Z,14.37
2023-01-23T13:15:19.067Z,16.15
2023-01-23T13:18:01.648Z,15.27
2023-01-23T13:21:14.424Z,18.87
2023-01-23T13:23:45.844Z,16.03
2023-01-23T13:26:20.161Z,15.57
2023-01-23T13:29:02.322Z,18.33
2023-01-23T13:31:46.509Z,20.37
2023-01-23T13:34:18.044Z,17.27
2023-01-23T13:36:51.383Z,17.80
2023-01-23T13:39:28.302Z,17.30
2023-01-23T13:42:11.742Z,20.80
2023-01-23T13:45:24.239Z,18.13
2023-01-23T14:20:51.529Z,16.95
2023-01-23T14:23:30.607Z,19.60
2023-01-23T14:26:04.770Z,19.67
2023-01-23T14:28:36.784Z,16.53
2023-01-23T14:31:22.326Z,17.53
2023-01-23T14:34:18.764Z,18.03
2023-01-23T14:37:01.124Z,17.92
2023-01-23T14:39:35.523Z,17.40
2023-01-23T14:42:16.508Z,18.20
2023-01-23T14:44:51.972Z,17.73
2023-01-23T14:47:34.358Z,12.57
2023-01-23T14:50:15.594Z,15.33
2023-01-23T14:52:57.361Z,15.53
2023-01-23T14:55:30.896Z,23.40
2023-01-23T14:58:03.881Z,15.30
2023-01-23T15:00:35.886Z,16.23
2023-01-23T15:03:12.302Z,19.40
2023-01-23T15:05:57.329Z,15.10
2023-01-23T15:08:33.591Z,17.37
2023-01-23T15:13:50.229Z,16.07
2023-01-23T15:16:29.043Z,20.47
2023-01-23T15:19:19.621Z,16.03
2023-01-23T15:22:05.007Z,20.20
2023-01-23T15:24:36.330Z,18.10
2023-01-23T15:27:24.856Z,20.27
2023-01-23T15:30:30.244Z,17.30
2023-01-23T15:33:07.094Z,21.43
2023-01-23T15:35:38.465Z,16.33
2023-01-23T15:38:16.391Z,20.67
2023-01-23T15:40:47.848Z,20.53
2023-01-23T15:43:19.492Z,18.70
2023-01-23T15:45:50.808Z,19.50
2023-01-23T15:48:22.104Z,16.67
2023-01-23T15:50:54.604Z,17.63
2023-01-23T15:53:25.968Z,17.23
2023-01-23T15:55:57.539Z,18.33
2023-01-23T15:58:28.841Z,18.37
2023-01-23T16:01:00.290Z,17.03
2023-01-23T16:03:31.686Z,17.67
2023-01-23T16:06:04.927Z,15.43
2023-01-23T16:08:36.835Z,18.63
2023-01-23T16:11:08.232Z,18.97
2023-01-23T16:13:39.564Z,19.93
2023-01-23T16:16:15.356Z,17.27
2023-01-23T16:18:46.717Z,19.42
2023-01-23T16:21:20.956Z,21.67
2023-01-23T16:23:53.683Z,17.10
2023-01-23T16:26:27.750Z,17.00
2023-01-23T16:29:12.383Z,17.53
2023-01-23T16:31:44.753Z,16.83
2023-01-23T16:34:16.188Z,16.13
2023-01-23T16:36:49.928Z,17.93
2023-01-23T16:39:26.530Z,18.77
2023-01-23T16:41:58.201Z,22.37
2023-01-23T16:44:29.614Z,17.47
2023-01-23T16:47:00.915Z,20.30
2023-01-23T16:49:35.981Z,18.97
2023-01-23T16:52:15.010Z,16.80
2023-01-23T16:54:46.371Z,18.20
2023-01-23T16:57:20.133Z,20.33
2023-01-23T16:59:52.169Z,23.10
2023-01-23T17:02:30.803Z,18.20
2023-01-23T17:05:02.530Z,19.77
2023-01-23T17:07:33.891Z,20.20
2023-01-23T17:10:05.665Z,17.77
2023-01-23T17:12:37.140Z,16.60
2023-01-23T17:15:29.402Z,17.57
2023-01-23T17:18:01.266Z,16.03
2023-01-23T17:20:32.694Z,19.30
2023-01-23T17:23:04.024Z,20.03
2023-01-23T17:25:36.679Z,16.73
2023-01-23T17:28:13.402Z,16.33
2023-01-23T17:30:48.103Z,20.10
2023-01-23T17:33:22.681Z,21.20
2023-01-23T17:35:54.281Z,19.13
2023-01-23T17:38:28.418Z,19.47
2023-01-23T17:40:59.906Z,18.97
2023-01-23T17:43:31.245Z,18.47
2023-01-23T17:46:04.254Z,19.07
2023-01-23T17:48:39.217Z,19.70
2023-01-23T17:51:18.990Z,19.23
2023-01-23T17:53:51.146Z,23.67
2023-01-23T17:56:22.716Z,21.80
2023-01-23T17:58:53.981Z,19.23
2023-01-23T18:01:25.854Z,20.53
2023-01-23T18:03:57.158Z,18.77
2023-01-23T18:06:30.352Z,18.83
2023-01-23T18:09:02.531Z,23.00
2023-01-23T18:11:33.980Z,17.67
2023-01-23T18:14:28.027Z,21.90
2023-01-23T18:16:59.561Z,18.37
2023-01-23T18:19:31.056Z,21.17
2023-01-23T18:22:02.983Z,20.23
2023-01-23T18:24:34.783Z,17.97
2023-01-23T18:27:21.596Z,24.07
2023-01-23T18:32:26.883Z,24.50
2023-01-23T18:35:20.198Z,17.90
2023-01-23T18:38:23.076Z,20.53
2023-01-23T18:41:25.739Z,19.63
2023-01-23T18:44:11.270Z,25.27
2023-01-23T18:46:42.737Z,24.03
2023-01-23T18:49:21.473Z,20.70
2023-01-23T18:52:13.083Z,22.50
2023-01-23T18:55:11.351Z,22.73
2023-01-23T18:57:53.026Z,17.00
2023-01-23T19:00:51.939Z,21.43
2023-01-23T19:03:38.302Z,20.23
2023-01-23T19:06:34.863Z,19.27
2023-01-23T19:09:12.436Z,24.60
2023-01-23T19:12:00.179Z,20.07
2023-01-23T19:14:44.221Z,23.87
2023-01-23T19:17:30.405Z,23.50
2023-01-23T19:20:10.097Z,20.92
2023-01-23T19:23:08.690Z,22.90
2023-01-23T19:25:40.192Z,19.23
2023-01-23T19:28:11.671Z,24.60
2023-01-23T19:30:43.556Z,24.37
2023-01-23T19:33:16.806Z,22.93
2023-01-23T19:35:48.909Z,24.60
2023-01-23T19:38:21.940Z,28.47
2023-01-23T19:40:55.293Z,20.83
2023-01-23T19:43:28.043Z,21.87
2023-01-23T19:46:00.103Z,25.87
2023-01-23T19:48:31.349Z,25.87
2023-01-23T19:51:02.856Z,27.40
2023-01-23T19:53:34.162Z,26.70
2023-01-23T19:56:06.131Z,30.07
2023-01-23T19:58:37.946Z,26.07
2023-01-23T20:01:23.181Z,27.30
2023-01-23T20:03:54.460Z,24.47
2023-01-23T20:06:26.358Z,26.03
2023-01-23T20:08:57.636Z,25.57
2023-01-23T20:11:29.103Z,26.03
2023-01-23T20:14:00.425Z,26.47
2023-01-23T20:16:31.849Z,24.60
2023-01-23T20:19:03.265Z,21.13
2023-01-23T20:21:34.640Z,23.50
2023-01-23T20:24:07.464Z,29.40
2023-01-23T20:26:40.135Z,25.83
2023-01-23T20:29:12.071Z,26.63
2023-01-23T20:31:43.393Z,26.77
2023-01-23T20:34:14.687Z,23.10
2023-01-23T20:36:46.186Z,26.43
2023-01-23T20:39:17.580Z,24.67
2023-01-23T20:41:48.954Z,24.10
2023-01-23T20:44:20.360Z,22.60
2023-01-23T20:46:52.269Z,21.57
2023-01-23T20:49:23.546Z,24.83
2023-01-23T20:52:14.853Z,24.33
2023-01-23T20:54:46.993Z,23.77
2023-01-23T20:57:18.364Z,25.97
2023-01-23T20:59:49.624Z,29.03
2023-01-23T21:02:23.676Z,25.10
2023-01-23T21:04:55.162Z,23.93
2023-01-23T21:07:27.923Z,25.63
2023-01-23T21:09:59.233Z,26.30
2023-01-23T21:12:30.519Z,24.63
2023-01-23T21:15:01.915Z,27.53
2023-01-23T21:17:33.210Z,23.60
2023-01-23T21:20:05.031Z,26.50
2023-01-23T21:22:36.354Z,32.80
2023-01-23T21:25:07.761Z,30.27
2023-01-23T21:27:39.030Z,25.33
2023-01-23T21:30:10.982Z,23.30
2023-01-23T21:32:42.310Z,31.00
2023-01-23T21:35:13.599Z,26.40
2023-01-23T21:37:45.083Z,28.70
2023-01-23T21:40:16.735Z,28.13
2023-01-23T21:42:48.001Z,24.03
2023-01-23T21:45:19.570Z,28.33
2023-01-23T21:47:51.009Z,27.23
2023-01-23T21:50:22.253Z,25.47
2023-01-23T21:52:53.550Z,25.17
2023-01-23T21:55:25.980Z,26.80
2023-01-23T21:57:57.253Z,24.17
2023-01-23T22:00:47.132Z,25.10
2023-01-23T22:03:18.425Z,28.90
2023-01-23T22:05:49.689Z,28.43
2023-01-23T22:08:20.951Z,24.90
2023-01-23T22:10:52.203Z,27.87
2023-01-23T22:13:23.719Z,28.80
2023-01-23T22:15:57.224Z,28.90
2023-01-23T22:18:29.302Z,29.47
2023-01-23T22:21:02.546Z,27.37
2023-01-23T22:23:34.551Z,26.73
2023-01-23T22:26:08.379Z,29.97
2023-01-23T22:28:39.664Z,28.47
2023-01-23T22:31:13.875Z,30.73
2023-01-23T22:33:49.838Z,27.33
2023-01-23T22:36:21.221Z,25.90
2023-01-23T22:38:54.052Z,24.93
2023-01-23T22:41:25.472Z,23.70
2023-01-23T22:43:59.194Z,26.07
2023-01-23T22:46:32.211Z,26.90
2023-01-23T22:49:03.940Z,22.10
2023-01-23T22:51:35.215Z,27.87
2023-01-23T22:54:06.477Z,30.83
2023-01-23T22:56:38.100Z,26.97
2023-01-23T22:59:09.716Z,27.93
2023-01-23T23:01:40.980Z,23.17
2023-01-23T23:04:12.250Z,27.33
2023-01-23T23:06:43.645Z,28.43
2023-01-23T23:09:14.916Z,28.20
2023-01-23T23:11:48.938Z,25.13
2023-01-23T23:14:20.216Z,28.53
2023-01-23T23:16:51.473Z,28.10
2023-01-23T23:19:22.732Z,23.10
2023-01-23T23:21:54.088Z,29.67
2023-01-23T23:24:25.403Z,29.47
2023-01-23T23:26:56.746Z,28.03
2023-01-23T23:29:28.025Z,23.53
2023-01-23T23:31:59.366Z,28.40
2023-01-23T23:34:30.708Z,25.10
2023-01-23T23:37:02.041Z,26.73
2023-01-23T23:39:33.320Z,27.60
2023-01-23T23:42:04.702Z,35.80
2023-01-23T23:44:35.962Z,26.53
2023-01-23T23:47:07.225Z,28.13
2023-01-23T23:49:38.499Z,26.77
2023-01-23T23:52:09.745Z,27.50
2023-01-23T23:54:41.012Z,23.00
2023-01-23T23:57:12.307Z,23.73
2023-01-23T23:59:43.682Z,24.30
